createdAt,value
2023-01-30T00:01:15.767Z,1.76
2023-01-30T00:03:42.367Z,1.76
2023-01-30T00:06:09.015Z,1.81
2023-01-30T00:08:35.707Z,1.95
2023-01-30T00:11:07.583Z,1.84
2023-01-30T00:13:35.101Z,1.99
2023-01-30T00:16:02.951Z,1.89
2023-01-30T00:18:29.722Z,1.98
2023-01-30T00:21:00.357Z,1.88
2023-01-30T00:23:28.145Z,1.79
2023-01-30T00:25:55.822Z,1.70
2023-01-30T00:28:22.981Z,1.68
2023-01-30T00:30:50.675Z,1.62
2023-01-30T00:33:17.924Z,1.65
2023-01-30T00:35:49.098Z,1.52
2023-01-30T00:38:16.760Z,1.51
2023-01-30T00:40:43.695Z,1.57
2023-01-30T00:43:34.223Z,1.65
2023-01-30T00:46:21.599Z,1.71
2023-01-30T00:48:48.341Z,1.57
2023-01-30T00:51:15.030Z,1.52
2023-01-30T00:53:41.730Z,1.49
2023-01-30T00:56:08.451Z,1.63
2023-01-30T00:58:35.099Z,1.49
2023-01-30T01:01:01.740Z,1.27
2023-01-30T01:03:28.427Z,1.47
2023-01-30T01:05:55.109Z,1.40
2023-01-30T01:08:22.758Z,1.55
2023-01-30T01:10:49.603Z,1.27
2023-01-30T01:13:16.339Z,1.40
2023-01-30T01:15:43.154Z,1.38
2023-01-30T01:18:09.881Z,1.39
2023-01-30T01:20:36.551Z,1.21
2023-01-30T01:23:03.577Z,1.39
2023-01-30T01:25:30.339Z,1.48
2023-01-30T01:27:57.057Z,1.51
2023-01-30T01:30:23.795Z,1.42
2023-01-30T01:32:50.540Z,1.52
2023-01-30T01:35:17.531Z,1.66
2023-01-30T01:37:44.406Z,1.73
2023-01-30T01:40:36.829Z,1.15
2023-01-30T01:43:15.955Z,1.49
2023-01-30T01:45:43.802Z,1.52
2023-01-30T01:48:19.357Z,1.56
2023-01-30T01:50:54.546Z,1.65
2023-01-30T01:53:26.089Z,1.61
2023-01-30T01:55:57.045Z,1.44
2023-01-30T01:58:29.824Z,1.34
2023-01-30T02:00:59.197Z,1.22
2023-01-30T02:03:29.185Z,1.37
2023-01-30T02:06:00.304Z,1.33
2023-01-30T02:08:29.441Z,1.26
2023-01-30T02:11:10.947Z,1.29
2023-01-30T02:13:38.279Z,1.34
2023-01-30T02:16:07.555Z,1.54
2023-01-30T02:18:37.094Z,1.48
2023-01-30T02:21:39.188Z,1.33
2023-01-30T02:24:05.825Z,1.26
2023-01-30T02:26:54.188Z,1.49
2023-01-30T02:29:50.360Z,1.32
2023-01-30T02:32:23.084Z,1.31
2023-01-30T02:35:05.590Z,1.19
2023-01-30T02:37:41.139Z,1.20
2023-01-30T02:40:42.371Z,1.16
2023-01-30T02:43:17.062Z,1.14
2023-01-30T02:45:56.774Z,1.04
2023-01-30T02:48:33.109Z,1.12
2023-01-30T02:51:05.886Z,1.15
2023-01-30T02:53:34.091Z,1.11
2023-01-30T02:56:01.152Z,1.17
2023-01-30T02:58:33.192Z,1.08
2023-01-30T03:01:30.834Z,1.09
2023-01-30T03:04:37.948Z,0.98
2023-01-30T03:07:32.554Z,1.03
2023-01-30T03:10:34.156Z,0.86
2023-01-30T03:13:28.531Z,0.92
2023-01-30T03:16:28.377Z,0.87
2023-01-30T03:18:55.279Z,0.77
2023-01-30T03:21:21.918Z,0.89
2023-01-30T03:23:48.747Z,1.07
2023-01-30T03:26:20.878Z,0.79
2023-01-30T03:28:50.047Z,0.86
2023-01-30T03:31:16.871Z,0.75
2023-01-30T03:33:43.566Z,0.78
2023-01-30T03:36:11.109Z,0.58
2023-01-30T03:38:38.232Z,0.73
2023-01-30T03:41:05.850Z,0.61
2023-01-30T03:43:32.597Z,0.66
2023-01-30T03:45:59.261Z,0.65
2023-01-30T03:48:25.984Z,0.67
2023-01-30T03:50:52.659Z,0.77
2023-01-30T03:53:19.421Z,0.74
2023-01-30T03:55:46.182Z,0.72
2023-01-30T03:58:12.880Z,0.71
2023-01-30T04:00:39.653Z,0.76
2023-01-30T04:03:06.349Z,0.81
2023-01-30T04:05:33.172Z,0.80
2023-01-30T04:07:59.953Z,0.69
2023-01-30T04:10:27.580Z,0.77
2023-01-30T04:12:54.693Z,0.72
2023-01-30T04:15:21.421Z,0.76
2023-01-30T04:17:48.142Z,0.72
2023-01-30T04:20:15.301Z,0.80
2023-01-30T04:22:42.110Z,0.60
2023-01-30T04:25:09.335Z,0.59
2023-01-30T04:27:36.137Z,0.77
2023-01-30T04:30:03.324Z,0.80
2023-01-30T04:32:30.175Z,0.82
2023-01-30T04:34:56.909Z,0.74
2023-01-30T04:37:23.771Z,0.69
2023-01-30T04:39:50.487Z,0.67
2023-01-30T04:42:17.256Z,0.58
2023-01-30T04:44:43.972Z,0.70
2023-01-30T04:47:10.821Z,0.76
2023-01-30T04:49:37.928Z,0.72
2023-01-30T04:52:05.214Z,0.81
2023-01-30T04:54:32.073Z,0.79
2023-01-30T04:56:58.847Z,0.83
2023-01-30T04:59:25.820Z,0.89
2023-01-30T05:01:52.762Z,0.71
2023-01-30T05:04:20.245Z,0.90
2023-01-30T05:06:46.985Z,0.79
2023-01-30T05:09:13.585Z,0.82
2023-01-30T05:11:40.282Z,0.75
2023-01-30T05:14:06.950Z,0.64
2023-01-30T05:16:33.667Z,0.73
2023-01-30T05:19:00.564Z,0.86
2023-01-30T05:21:28.762Z,0.88
2023-01-30T05:23:57.027Z,0.77
2023-01-30T05:26:24.769Z,0.78
2023-01-30T05:28:56.582Z,0.68
2023-01-30T05:31:23.904Z,0.62
2023-01-30T05:33:52.474Z,0.90
2023-01-30T05:36:20.758Z,0.84
2023-01-30T05:38:47.491Z,0.82
2023-01-30T05:41:16.337Z,0.80
2023-01-30T05:43:43.323Z,0.68
2023-01-30T05:46:12.777Z,0.85
2023-01-30T05:48:41.113Z,0.77
2023-01-30T05:51:16.873Z,0.78
2023-01-30T05:53:43.499Z,0.87
2023-01-30T05:56:10.253Z,0.87
2023-01-30T05:58:36.950Z,0.75
2023-01-30T06:01:06.246Z,0.89
2023-01-30T06:03:32.930Z,1.02
2023-01-30T06:06:01.745Z,0.99
2023-01-30T06:08:28.708Z,0.98
2023-01-30T06:10:55.406Z,0.98
2023-01-30T06:13:22.105Z,0.88
2023-01-30T06:15:48.850Z,0.88
2023-01-30T06:18:15.560Z,0.97
2023-01-30T06:20:48.219Z,1.09
2023-01-30T06:23:15.193Z,1.02
2023-01-30T06:25:46.070Z,1.05
2023-01-30T06:28:13.535Z,1.03
2023-01-30T06:30:40.502Z,0.82
2023-01-30T06:33:08.023Z,0.83
2023-01-30T06:35:35.092Z,0.83
2023-01-30T06:38:01.786Z,0.88
2023-01-30T06:40:28.439Z,1.01
2023-01-30T06:42:55.150Z,1.16
2023-01-30T06:45:21.877Z,1.03
2023-01-30T06:47:53.801Z,1.04
2023-01-30T06:50:22.979Z,1.03
2023-01-30T06:52:51.307Z,0.96
2023-01-30T06:55:20.640Z,1.03
2023-01-30T07:00:43.345Z,0.87
2023-01-30T07:03:14.980Z,0.97
2023-01-30T07:05:43.396Z,0.85
2023-01-30T07:08:10.448Z,0.91
2023-01-30T07:10:37.557Z,0.80
2023-01-30T07:13:04.953Z,0.92
2023-01-30T07:15:32.441Z,1.04
2023-01-30T07:17:59.567Z,1.14
2023-01-30T07:20:26.515Z,1.08
2023-01-30T07:22:55.099Z,1.08
2023-01-30T07:25:24.336Z,1.20
2023-01-30T07:27:56.342Z,1.22
2023-01-30T07:30:23.037Z,0.85
2023-01-30T07:32:54.710Z,1.27
2023-01-30T07:35:22.884Z,1.33
2023-01-30T07:37:50.551Z,1.55
2023-01-30T07:40:18.204Z,1.41
2023-01-30T07:42:45.203Z,1.62
2023-01-30T07:45:11.955Z,1.40
2023-01-30T07:47:38.677Z,1.50
2023-01-30T07:50:05.952Z,1.49
2023-01-30T07:52:32.880Z,1.78
2023-01-30T07:55:01.475Z,1.87
2023-01-30T07:57:28.436Z,1.79
2023-01-30T07:59:55.092Z,1.78
2023-01-30T08:02:21.869Z,2.04
2023-01-30T08:04:48.551Z,1.83
2023-01-30T08:07:15.259Z,1.86
2023-01-30T08:09:42.168Z,1.74
2023-01-30T08:12:08.774Z,1.70
2023-01-30T08:14:35.454Z,1.71
2023-01-30T08:17:02.129Z,2.02
2023-01-30T08:19:28.802Z,2.20
2023-01-30T08:21:55.535Z,2.16
2023-01-30T08:24:22.234Z,2.74
2023-01-30T08:26:49.580Z,2.95
2023-01-30T08:29:17.316Z,3.22
2023-01-30T08:31:44.169Z,3.13
2023-01-30T08:34:11.004Z,2.91
2023-01-30T08:36:37.711Z,2.62
2023-01-30T08:39:05.215Z,2.64
2023-01-30T08:41:31.951Z,3.87
2023-01-30T08:43:58.645Z,4.06
2023-01-30T08:46:25.442Z,4.32
2023-01-30T08:48:52.140Z,4.09
2023-01-30T08:51:19.022Z,4.78
2023-01-30T08:53:45.805Z,5.10
2023-01-30T08:56:12.545Z,4.99
2023-01-30T08:58:39.226Z,4.94
2023-01-30T09:01:07.130Z,5.74
2023-01-30T09:03:34.313Z,6.22
2023-01-30T09:06:01.314Z,5.61
2023-01-30T09:08:28.412Z,4.96
2023-01-30T09:10:59.731Z,4.29
2023-01-30T09:13:26.739Z,4.12
2023-01-30T09:15:54.156Z,4.52
2023-01-30T09:18:21.044Z,4.56
2023-01-30T09:20:47.843Z,4.10
2023-01-30T09:23:14.580Z,3.86
2023-01-30T09:25:41.724Z,3.61
2023-01-30T09:28:08.397Z,3.45
2023-01-30T09:30:35.250Z,3.54
2023-01-30T09:33:02.377Z,3.76
2023-01-30T09:35:29.125Z,3.76
2023-01-30T09:37:55.826Z,3.48
2023-01-30T09:40:28.966Z,3.36
2023-01-30T09:43:04.707Z,3.10
2023-01-30T09:45:44.555Z,3.12
2023-01-30T09:48:18.382Z,3.40
2023-01-30T09:51:01.769Z,3.50
2023-01-30T09:53:43.059Z,3.88
2023-01-30T09:56:09.876Z,4.22
2023-01-30T09:58:56.823Z,4.69
2023-01-30T10:01:53.872Z,4.66
2023-01-30T10:04:31.941Z,4.51
2023-01-30T10:07:25.534Z,4.41
2023-01-30T10:10:04.230Z,4.35
2023-01-30T10:12:50.255Z,4.43
2023-01-30T10:15:31.668Z,4.16
2023-01-30T10:18:06.005Z,4.46
2023-01-30T10:21:00.749Z,4.35
2023-01-30T10:23:30.173Z,4.53
2023-01-30T10:26:01.802Z,4.45
2023-01-30T10:28:32.856Z,4.19
2023-01-30T10:31:04.856Z,4.24
2023-01-30T10:33:58.031Z,4.41
2023-01-30T10:36:50.777Z,4.46
2023-01-30T10:39:54.846Z,4.24
2023-01-30T10:42:53.217Z,4.11
2023-01-30T10:45:26.757Z,4.00
2023-01-30T10:48:11.186Z,3.74
2023-01-30T10:51:03.336Z,3.98
2023-01-30T10:54:05.324Z,4.20
2023-01-30T10:57:11.427Z,4.24
2023-01-30T10:59:56.248Z,4.20
2023-01-30T11:02:45.821Z,4.19
2023-01-30T11:05:21.339Z,4.16
2023-01-30T11:07:49.339Z,4.20
2023-01-30T11:10:21.241Z,3.98
2023-01-30T11:12:52.629Z,4.17
2023-01-30T11:15:19.534Z,3.87
2023-01-30T11:17:46.545Z,3.89
2023-01-30T11:20:23.214Z,3.87
2023-01-30T11:23:12.855Z,4.16
2023-01-30T11:26:05.536Z,4.27
2023-01-30T11:28:43.934Z,4.43
2023-01-30T11:31:31.482Z,4.55
2023-01-30T11:34:17.670Z,4.05
2023-01-30T11:36:47.233Z,4.09
2023-01-30T11:39:14.254Z,4.11
2023-01-30T11:41:54.065Z,3.96
2023-01-30T11:44:26.921Z,4.13
2023-01-30T11:46:54.233Z,4.13
2023-01-30T11:49:48.981Z,4.34
2023-01-30T11:52:10.102Z,4.44
2023-01-30T11:54:45.289Z,4.71
2023-01-30T11:57:15.042Z,4.53
2023-01-30T11:59:55.598Z,4.58
2023-01-30T12:02:38.333Z,4.25
2023-01-30T12:05:32.999Z,4.23
2023-01-30T12:08:39.418Z,4.17
2023-01-30T12:11:44.817Z,4.35
2023-01-30T12:14:26.772Z,4.39
2023-01-30T12:17:14.902Z,4.42
2023-01-30T12:19:41.655Z,4.23
2023-01-30T12:22:29.257Z,4.46
2023-01-30T12:25:32.818Z,4.53
2023-01-30T12:28:22.385Z,4.42
2023-01-30T12:30:55.155Z,4.30
2023-01-30T12:33:23.054Z,3.97
2023-01-30T12:36:21.898Z,4.07
2023-01-30T12:39:25.914Z,4.22
2023-01-30T12:42:01.525Z,4.51
2023-01-30T12:44:46.873Z,4.65
2023-01-30T12:47:32.002Z,4.62
2023-01-30T12:50:11.981Z,4.42
2023-01-30T12:52:59.205Z,4.35
2023-01-30T12:55:44.669Z,4.56
2023-01-30T12:58:34.270Z,4.62
2023-01-30T13:01:06.049Z,4.75
2023-01-30T13:03:39.704Z,4.80
2023-01-30T13:06:29.339Z,4.97
2023-01-30T13:09:13.275Z,5.14
2023-01-30T13:12:11.009Z,5.18
2023-01-30T13:14:52.338Z,5.38
2023-01-30T13:17:25.028Z,5.36
2023-01-30T13:20:13.560Z,5.48
2023-01-30T13:22:56.913Z,5.10
2023-01-30T13:25:42.441Z,5.28
2023-01-30T13:28:17.157Z,5.01
2023-01-30T13:30:45.815Z,4.84
2023-01-30T13:33:24.461Z,4.93
2023-01-30T13:36:31.535Z,4.55
2023-01-30T13:39:10.807Z,4.99
2023-01-30T13:41:42.667Z,4.76
2023-01-30T13:44:31.091Z,4.80
2023-01-30T13:47:03.517Z,4.54
2023-01-30T13:49:43.464Z,4.27
2023-01-30T13:52:35.032Z,4.23
2023-01-30T13:55:11.438Z,4.31
2023-01-30T13:58:05.956Z,4.28
2023-01-30T14:00:34.452Z,4.30
2023-01-30T14:03:03.928Z,4.27
2023-01-30T14:05:52.871Z,4.23
2023-01-30T14:08:23.360Z,4.23
2023-01-30T14:10:50.507Z,4.04
2023-01-30T14:13:18.794Z,3.95
2023-01-30T14:15:58.882Z,3.90
2023-01-30T14:18:33.936Z,3.77
2023-01-30T14:21:16.851Z,3.52
2023-01-30T14:23:57.355Z,3.39
2023-01-30T14:26:48.894Z,3.29
2023-01-30T14:29:37.467Z,3.23
2023-01-30T14:32:13.871Z,2.95
2023-01-30T14:34:46.149Z,2.83
2023-01-30T14:37:46.940Z,2.98
2023-01-30T14:40:22.777Z,2.92
2023-01-30T14:43:19.525Z,2.85
2023-01-30T14:46:01.230Z,2.63
2023-01-30T14:48:39.843Z,2.70
2023-01-30T14:51:45.541Z,2.71
2023-01-30T14:54:12.646Z,2.71
2023-01-30T14:56:48.384Z,2.54
2023-01-30T14:59:21.167Z,2.60
2023-01-30T15:02:14.913Z,2.43
2023-01-30T15:05:03.712Z,2.46
2023-01-30T15:07:42.019Z,2.46
2023-01-30T15:10:17.971Z,2.51
2023-01-30T15:13:20.461Z,2.49
2023-01-30T15:16:08.353Z,2.61
2023-01-30T15:19:13.425Z,2.74
2023-01-30T15:21:48.816Z,2.83
2023-01-30T15:24:37.119Z,2.96
2023-01-30T15:27:39.370Z,3.04
2023-01-30T15:30:18.372Z,3.10
2023-01-30T15:32:45.999Z,3.04
2023-01-30T15:35:18.941Z,2.98
2023-01-30T15:37:57.265Z,2.89
2023-01-30T15:40:26.423Z,2.81
2023-01-30T15:43:36.213Z,2.79
2023-01-30T15:46:10.797Z,2.92
2023-01-30T15:48:56.806Z,2.89
2023-01-30T15:51:29.559Z,2.90
2023-01-30T15:53:58.366Z,2.77
2023-01-30T15:56:28.963Z,2.84
2023-01-30T15:58:59.806Z,2.97
2023-01-30T16:01:26.904Z,2.88
2023-01-30T16:03:54.168Z,2.86
2023-01-30T16:06:32.843Z,2.95
2023-01-30T16:09:18.323Z,2.95
2023-01-30T16:11:45.119Z,2.95
2023-01-30T16:14:22.784Z,2.92
2023-01-30T16:17:03.494Z,3.08
2023-01-30T16:19:37.510Z,2.98
2023-01-30T16:22:19.171Z,3.02
2023-01-30T16:24:51.042Z,2.87
2023-01-30T16:27:32.266Z,2.89
2023-01-30T16:30:07.415Z,2.84
2023-01-30T16:32:35.907Z,2.82
2023-01-30T16:35:30.948Z,2.87
2023-01-30T16:38:00.289Z,2.87
2023-01-30T16:40:42.616Z,2.88
2023-01-30T16:43:22.905Z,2.85
2023-01-30T16:45:52.305Z,2.77
2023-01-30T16:48:23.384Z,2.81
2023-01-30T16:50:59.752Z,2.84
2023-01-30T16:53:32.589Z,2.74
2023-01-30T16:56:03.878Z,2.71
2023-01-30T16:58:33.691Z,2.70
2023-01-30T17:01:03.102Z,2.68
2023-01-30T17:03:36.909Z,2.75
2023-01-30T17:06:12.587Z,2.77
2023-01-30T17:08:57.811Z,2.86
2023-01-30T17:11:41.639Z,2.93
2023-01-30T17:14:24.437Z,2.97
2023-01-30T17:17:08.296Z,2.88
2023-01-30T17:19:36.152Z,2.96
2023-01-30T17:22:08.665Z,2.98
2023-01-30T17:24:36.171Z,3.08
2023-01-30T17:27:04.253Z,2.98
2023-01-30T17:29:42.305Z,2.97
2023-01-30T17:32:15.382Z,2.95
2023-01-30T17:34:42.455Z,3.02
2023-01-30T17:37:15.933Z,3.03
2023-01-30T17:39:42.665Z,3.02
2023-01-30T17:42:11.006Z,3.08
2023-01-30T17:44:39.153Z,2.59
2023-01-30T17:47:06.501Z,2.88
2023-01-30T17:49:33.224Z,2.91
2023-01-30T17:52:00.447Z,2.76
2023-01-30T17:54:30.151Z,2.89
2023-01-30T17:57:09.904Z,2.96
2023-01-30T17:59:37.102Z,2.99
2023-01-30T18:02:03.836Z,2.88
2023-01-30T18:04:32.147Z,2.83
2023-01-30T18:07:09.706Z,2.93
2023-01-30T18:09:36.408Z,2.77
2023-01-30T18:12:03.833Z,2.78
2023-01-30T18:14:30.541Z,2.67
2023-01-30T18:17:00.786Z,2.49
2023-01-30T18:19:29.150Z,2.46
2023-01-30T18:21:56.719Z,2.34
2023-01-30T18:24:24.329Z,2.49
2023-01-30T18:26:51.048Z,2.29
2023-01-30T18:29:17.923Z,2.32
2023-01-30T18:31:44.753Z,2.37
2023-01-30T18:34:11.792Z,2.33
2023-01-30T18:36:40.809Z,2.20
2023-01-30T18:39:07.732Z,2.19
2023-01-30T18:41:37.586Z,2.20
2023-01-30T18:44:06.508Z,2.15
2023-01-30T18:46:34.519Z,2.12
2023-01-30T18:49:01.442Z,2.01
2023-01-30T18:51:33.520Z,1.95
2023-01-30T18:54:01.751Z,1.96
2023-01-30T18:56:31.784Z,2.00
2023-01-30T18:59:02.566Z,2.01
2023-01-30T19:01:32.822Z,1.90
2023-01-30T19:04:02.624Z,1.94
2023-01-30T19:06:30.757Z,1.77
2023-01-30T19:08:58.384Z,1.82
2023-01-30T19:11:43.608Z,1.82
2023-01-30T19:14:11.991Z,1.86
2023-01-30T19:16:39.556Z,1.86
2023-01-30T19:19:09.393Z,1.76
2023-01-30T19:21:37.103Z,1.72
2023-01-30T19:24:06.718Z,1.72
2023-01-30T19:26:34.491Z,1.88
2023-01-30T19:29:01.314Z,1.86
2023-01-30T19:31:28.638Z,1.81
2023-01-30T19:34:04.781Z,1.81
2023-01-30T19:36:33.522Z,1.76
2023-01-30T19:39:02.745Z,1.63
2023-01-30T19:41:33.021Z,1.67
2023-01-30T19:44:02.261Z,1.71
2023-01-30T19:46:29.758Z,1.40
2023-01-30T19:48:57.939Z,1.70
2023-01-30T19:51:27.723Z,1.81
2023-01-30T19:53:56.867Z,1.63
2023-01-30T19:56:25.445Z,1.63
2023-01-30T19:58:55.027Z,1.85
2023-01-30T20:01:23.478Z,1.85
2023-01-30T20:03:50.448Z,1.96
2023-01-30T20:06:20.891Z,1.91
2023-01-30T20:08:50.317Z,2.00
2023-01-30T20:11:18.733Z,2.07
2023-01-30T20:13:47.037Z,2.13
2023-01-30T20:16:19.576Z,1.95
2023-01-30T20:18:48.303Z,1.80
2023-01-30T20:21:20.610Z,1.81
2023-01-30T20:23:48.657Z,1.66
2023-01-30T20:26:21.765Z,1.87
2023-01-30T20:28:49.460Z,1.80
2023-01-30T20:31:19.525Z,1.72
2023-01-30T20:33:46.705Z,1.73
2023-01-30T20:36:15.871Z,1.79
2023-01-30T20:38:43.765Z,1.85
2023-01-30T20:41:22.773Z,1.93
2023-01-30T20:43:51.669Z,1.87
2023-01-30T20:46:24.870Z,1.78
2023-01-30T20:48:54.506Z,1.64
2023-01-30T20:51:24.881Z,1.71
2023-01-30T20:53:57.208Z,1.62
2023-01-30T20:56:25.592Z,1.49
2023-01-30T20:58:52.629Z,1.66
2023-01-30T21:01:21.883Z,1.59
2023-01-30T21:03:50.962Z,1.42
2023-01-30T21:06:41.418Z,1.65
2023-01-30T21:09:18.810Z,1.70
2023-01-30T21:11:46.292Z,1.55
2023-01-30T21:14:13.112Z,1.49
2023-01-30T21:16:39.998Z,1.14
2023-01-30T21:19:10.071Z,1.10
2023-01-30T21:21:43.613Z,0.68
2023-01-30T21:24:14.649Z,0.57
2023-01-30T21:26:46.331Z,0.56
2023-01-30T21:29:18.850Z,0.64
2023-01-30T21:31:46.333Z,0.62
2023-01-30T21:34:13.688Z,0.72
2023-01-30T21:36:41.195Z,0.72
2023-01-30T21:39:27.929Z,0.89
2023-01-30T21:42:12.862Z,0.73
2023-01-30T21:44:40.891Z,0.51
2023-01-30T21:47:08.549Z,0.56
2023-01-30T21:49:36.755Z,0.66
2023-01-30T21:52:03.848Z,0.79
2023-01-30T21:54:30.472Z,0.80
2023-01-30T21:56:57.184Z,0.72
2023-01-30T21:59:23.854Z,0.83
2023-01-30T22:01:51.024Z,0.77
2023-01-30T22:04:17.899Z,0.56
2023-01-30T22:06:45.951Z,0.51
2023-01-30T22:09:16.312Z,0.38
2023-01-30T22:11:43.601Z,0.29
2023-01-30T22:14:13.529Z,0.19
2023-01-30T22:16:40.916Z,0.16
2023-01-30T22:19:07.990Z,-0.01
2023-01-30T22:21:37.585Z,0.13
2023-01-30T22:24:05.652Z,0.06
2023-01-30T22:26:32.470Z,0.02
2023-01-30T22:29:00.573Z,0.05
2023-01-30T22:31:30.407Z,0.14
2023-01-30T22:33:57.461Z,0.06
2023-01-30T22:36:29.132Z,0.11
2023-01-30T22:38:56.311Z,0.16
2023-01-30T22:41:25.920Z,0.14
2023-01-30T22:43:55.694Z,0.02
2023-01-30T22:46:27.730Z,0.08
2023-01-30T22:48:54.898Z,0.03
2023-01-30T22:51:27.219Z,-0.03
2023-01-30T22:53:56.996Z,-0.01
2023-01-30T22:56:26.647Z,-0.04
2023-01-30T22:58:53.883Z,0.11
2023-01-30T23:01:29.471Z,0.15
2023-01-30T23:03:58.795Z,0.27
2023-01-30T23:06:26.630Z,0.36
2023-01-30T23:08:54.867Z,0.44
2023-01-30T23:11:34.352Z,0.43
2023-01-30T23:14:10.493Z,0.45
2023-01-30T23:16:39.108Z,0.45
2023-01-30T23:19:07.803Z,0.03
2023-01-30T23:21:45.511Z,0.29
2023-01-30T23:24:14.422Z,0.38
2023-01-30T23:26:46.932Z,0.22
2023-01-30T23:29:17.045Z,0.31
2023-01-30T23:31:45.033Z,0.27
2023-01-30T23:34:17.448Z,0.12
2023-01-30T23:36:44.952Z,0.27
2023-01-30T23:39:13.513Z,0.34
2023-01-30T23:41:41.742Z,0.34
2023-01-30T23:44:09.104Z,0.18
2023-01-30T23:46:41.252Z,0.25
2023-01-30T23:49:10.792Z,0.39
2023-01-30T23:51:40.023Z,0.31
2023-01-30T23:54:07.649Z,0.17
2023-01-30T23:56:37.718Z,0.17
2023-01-30T23:59:05.574Z,0.13
